Time;durP1;ratioP1;P1;durP2;ratioP2;P2;SDS_P1;SDS_P2;PMS_P1;PMS_P2;Temp;Humidity;BMP_temperature;BMP_pressure;BME280_temperature;BME280_humidity;BME280_pressure;Samples;Min_cycle;Max_cycle;Signal;HPM_P1;HPM_P2
2021/05/12 00:00:11;;;;;;;5.82;2.63;;;12.10;99.90;;;;;;5064280;28;20081;-72
2021/05/12 00:02:37;;;;;;;6.07;2.85;;;12.10;99.90;;;;;;5064484;28;20021;-68
2021/05/12 00:05:05;;;;;;;6.63;2.72;;;12.10;99.90;;;;;;5064438;28;20031;-70
2021/05/12 00:07:31;;;;;;;5.05;2.83;;;12.10;99.90;;;;;;5064121;28;20035;-71
2021/05/12 00:09:57;;;;;;;7.03;3.25;;;12.10;99.90;;;;;;5064187;28;20033;-72
2021/05/12 00:12:22;;;;;;;7.85;3.20;;;12.00;99.90;;;;;;5066336;28;20394;-70
2021/05/12 00:14:48;;;;;;;6.63;3.40;;;12.00;99.90;;;;;;5067924;28;20037;-71
2021/05/12 00:17:18;;;;;;;5.53;2.63;;;12.00;99.90;;;;;;5068590;28;20025;-73
2021/05/12 00:19:44;;;;;;;7.18;2.80;;;12.00;99.90;;;;;;5068177;28;20029;-70
2021/05/12 00:24:36;;;;;;;5.82;3.08;;;12.00;99.90;;;;;;5068424;28;20029;-73
2021/05/12 00:27:02;;;;;;;4.18;2.45;;;12.00;99.90;;;;;;5068338;28;20055;-72
2021/05/12 00:29:27;;;;;;;5.93;2.33;;;12.10;99.90;;;;;;5067890;28;20048;-71
2021/05/12 00:31:53;;;;;;;5.05;2.65;;;12.10;99.90;;;;;;5068124;28;20049;-71
2021/05/12 00:34:19;;;;;;;5.47;2.72;;;12.10;99.90;;;;;;5067657;28;20468;-71
2021/05/12 00:36:44;;;;;;;4.30;2.55;;;12.10;99.90;;;;;;5067935;28;20029;-70
2021/05/12 00:39:10;;;;;;;4.38;2.38;;;12.10;99.90;;;;;;5068063;28;20025;-72
2021/05/12 00:41:36;;;;;;;6.38;2.22;;;12.10;99.90;;;;;;5066442;28;20036;-71
2021/05/12 00:44:04;;;;;;;4.95;2.78;;;12.10;99.90;;;;;;5067754;28;20017;-69
2021/05/12 00:46:30;;;;;;;6.88;2.78;;;12.10;99.90;;;;;;5067522;28;20026;-72
2021/05/12 00:48:56;;;;;;;8.98;2.80;;;12.10;99.90;;;;;;5067015;28;20029;-71
2021/05/12 00:51:21;;;;;;;4.60;2.50;;;12.10;99.90;;;;;;5066162;28;20029;-69
2021/05/12 00:53:47;;;;;;;7.50;2.38;;;12.00;99.90;;;;;;5067435;28;20029;-72
2021/05/12 00:56:13;;;;;;;5.80;3.25;;;12.10;99.90;;;;;;5067579;28;20030;-70
2021/05/12 00:58:38;;;;;;;5.80;3.45;;;12.00;99.90;;;;;;5067702;28;20021;-71
2021/05/12 01:01:05;;;;;;;9.60;2.83;;;12.00;99.90;;;;;;5067447;28;20029;-68
2021/05/12 01:03:30;;;;;;;9.52;4.32;;;11.90;99.90;;;;;;5067413;28;20033;-69
2021/05/12 01:05:56;;;;;;;6.32;3.10;;;11.90;99.90;;;;;;5067477;28;20121;-71
2021/05/12 01:08:21;;;;;;;10.20;3.70;;;11.90;99.90;;;;;;5066974;28;20032;-71
2021/05/12 01:10:47;;;;;;;7.32;4.22;;;11.90;99.90;;;;;;5067138;28;20085;-71
2021/05/12 01:13:13;;;;;;;9.30;4.47;;;11.90;99.90;;;;;;5067346;28;20028;-70
2021/05/12 01:15:41;;;;;;;6.15;3.50;;;11.90;99.90;;;;;;5066919;28;20025;-69
2021/05/12 01:18:24;;;;;;;8.57;4.20;;;11.80;99.90;;;;;;5074526;28;20012;-70
2021/05/12 01:20:59;;;;;;;7.72;4.28;;;11.80;99.90;;;;;;5078842;28;20048;-71
2021/05/12 01:23:33;;;;;;;10.10;4.15;;;11.80;99.90;;;;;;5079687;28;20040;-70
2021/05/12 01:26:01;;;;;;;8.20;4.75;;;11.80;99.90;;;;;;5077455;28;20027;-72
2021/05/12 01:28:29;;;;;;;11.07;5.32;;;11.80;99.90;;;;;;5082249;28;20083;-70
2021/05/12 01:31:20;;;;;;;11.95;5.90;;;11.80;99.90;;;;;;5066525;28;20056;-72
2021/05/12 01:33:46;;;;;;;12.02;5.72;;;11.70;99.90;;;;;;5067079;28;20036;-71
2021/05/12 01:36:12;;;;;;;9.32;5.03;;;11.70;99.90;;;;;;5066580;28;20116;-70
2021/05/12 01:38:41;;;;;;;10.32;4.63;;;11.70;99.90;;;;;;5067027;28;20048;-73
2021/05/12 01:41:07;;;;;;;10.05;5.18;;;11.70;99.90;;;;;;5066936;28;20021;-69
2021/05/12 01:43:34;;;;;;;12.25;6.28;;;11.70;99.90;;;;;;5066445;28;20040;-69
2021/05/12 01:46:00;;;;;;;12.18;5.78;;;11.70;99.90;;;;;;5066443;28;20029;-71
2021/05/12 01:48:26;;;;;;;16.35;6.63;;;11.70;99.90;;;;;;5066388;28;20027;-71
2021/05/12 01:50:51;;;;;;;13.70;6.78;;;11.70;99.90;;;;;;5064425;28;20076;-69
2021/05/12 01:53:18;;;;;;;13.02;5.65;;;11.70;99.90;;;;;;5066558;28;20453;-71
2021/05/12 01:55:45;;;;;;;15.23;6.68;;;11.60;99.90;;;;;;5066489;28;20025;-70
2021/05/12 01:58:11;;;;;;;15.82;6.05;;;11.60;99.90;;;;;;5066447;28;20067;-70
2021/05/12 02:00:42;;;;;;;10.18;5.40;;;11.60;99.90;;;;;;5066677;28;20029;-71
2021/05/12 02:03:08;;;;;;;22.88;7.00;;;11.50;99.90;;;;;;5065184;28;20037;-70
2021/05/12 02:05:36;;;;;;;11.40;6.15;;;11.50;99.90;;;;;;5065898;28;20029;-70
2021/05/12 02:08:04;;;;;;;16.40;5.88;;;11.50;99.90;;;;;;5066371;28;20025;-70
2021/05/12 02:10:30;;;;;;;14.32;4.78;;;11.40;99.90;;;;;;5065862;28;20102;-71
2021/05/12 02:12:56;;;;;;;14.23;5.60;;;11.40;99.90;;;;;;5066151;28;20520;-69
2021/05/12 02:15:23;;;;;;;9.82;5.38;;;11.40;99.90;;;;;;5066163;28;20088;-72
2021/05/12 02:17:49;;;;;;;7.88;4.45;;;11.40;99.90;;;;;;5065884;28;20031;-70
2021/05/12 02:20:22;;;;;;;16.65;5.10;;;11.30;99.90;;;;;;5066037;28;20424;-69
2021/05/12 02:22:49;;;;;;;7.82;4.15;;;11.30;99.90;;;;;;5065917;28;20044;-70
2021/05/12 02:25:15;;;;;;;8.70;4.03;;;11.30;99.90;;;;;;5065589;28;20027;-71
2021/05/12 02:27:41;;;;;;;10.43;5.35;;;11.30;99.90;;;;;;5066190;28;20393;-70
2021/05/12 02:30:08;;;;;;;7.60;3.53;;;11.40;99.90;;;;;;5065965;28;20037;-72
2021/05/12 02:32:34;;;;;;;13.35;5.05;;;11.30;99.90;;;;;;5065687;28;20033;-70
2021/05/12 02:35:00;;;;;;;13.07;4.43;;;11.30;99.90;;;;;;5064958;28;20056;-71
2021/05/12 02:37:27;;;;;;;7.65;3.47;;;11.30;99.90;;;;;;5065640;28;20025;-74
2021/05/12 02:39:53;;;;;;;9.00;3.60;;;11.30;99.90;;;;;;5065395;28;20021;-71
2021/05/12 02:42:19;;;;;;;16.92;3.95;;;11.30;99.90;;;;;;5065524;28;20033;-71
2021/05/12 02:44:45;;;;;;;8.57;4.18;;;11.30;99.90;;;;;;5064078;28;20033;-72
2021/05/12 02:47:11;;;;;;;16.80;3.70;;;11.30;99.90;;;;;;5065422;28;20057;-71
2021/05/12 02:49:38;;;;;;;6.07;3.60;;;11.30;99.90;;;;;;5065248;28;20052;-70
2021/05/12 02:52:05;;;;;;;6.13;3.03;;;11.30;99.90;;;;;;5065689;28;20020;-73
2021/05/12 02:54:31;;;;;;;12.38;3.42;;;11.20;99.90;;;;;;5063753;28;20033;-71
2021/05/12 02:56:57;;;;;;;6.15;3.13;;;11.30;99.90;;;;;;5065397;28;20024;-72
2021/05/12 02:59:23;;;;;;;5.35;2.78;;;11.30;99.90;;;;;;5065126;28;20061;-72
2021/05/12 03:01:48;;;;;;;6.13;3.13;;;11.20;99.90;;;;;;5063690;28;20029;-71
2021/05/12 03:04:14;;;;;;;6.20;2.88;;;11.20;99.90;;;;;;5065233;28;20059;-72
2021/05/12 03:06:39;;;;;;;6.15;3.15;;;11.30;99.90;;;;;;5063838;28;20076;-72
2021/05/12 03:09:07;;;;;;;8.32;4.07;;;11.20;99.90;;;;;;5065172;28;20029;-70
2021/05/12 03:11:33;;;;;;;6.68;4.03;;;11.10;99.90;;;;;;5065075;28;20033;-71
2021/05/12 03:13:58;;;;;;;14.13;4.88;;;11.10;99.90;;;;;;5064571;28;20092;-72
2021/05/12 03:16:24;;;;;;;12.25;3.45;;;11.10;99.90;;;;;;5064918;28;20036;-71
2021/05/12 03:18:49;;;;;;;8.05;4.85;;;11.10;99.90;;;;;;5064953;28;20489;-71
2021/05/12 03:21:15;;;;;;;11.63;5.55;;;11.10;99.90;;;;;;5064622;28;20029;-72
2021/05/12 03:23:41;;;;;;;9.20;4.93;;;11.00;99.90;;;;;;5064917;28;20024;-72
2021/05/12 03:26:06;;;;;;;21.27;4.75;;;11.00;99.90;;;;;;5065164;28;20076;-69
2021/05/12 03:28:32;;;;;;;13.30;4.63;;;11.00;99.90;;;;;;5063320;28;20075;-71
2021/05/12 03:30:57;;;;;;;11.07;3.60;;;11.00;99.90;;;;;;5065432;28;20908;-70
2021/05/12 03:33:23;;;;;;;8.00;4.35;;;11.00;99.90;;;;;;5063517;28;20036;-69
2021/05/12 03:35:49;;;;;;;8.93;4.55;;;11.00;99.90;;;;;;5062832;28;20024;-70
2021/05/12 03:38:14;;;;;;;7.80;4.47;;;11.00;99.90;;;;;;5064630;28;20044;-71
2021/05/12 03:40:41;;;;;;;12.57;4.72;;;11.10;99.90;;;;;;5064371;28;20056;-73
2021/05/12 03:43:07;;;;;;;8.73;3.78;;;11.00;99.90;;;;;;5064869;28;20021;-72
2021/05/12 03:45:33;;;;;;;8.75;4.07;;;11.00;99.90;;;;;;5064679;28;20025;-70
2021/05/12 03:47:58;;;;;;;8.25;4.20;;;11.00;99.90;;;;;;5064330;28;20029;-71
2021/05/12 03:50:27;;;;;;;10.20;4.40;;;11.00;99.90;;;;;;5064096;28;20057;-71
2021/05/12 03:52:53;;;;;;;9.00;4.25;;;11.10;99.90;;;;;;5064681;28;20052;-70
2021/05/12 03:55:19;;;;;;;9.57;4.20;;;11.10;99.90;;;;;;5064155;28;20029;-72
2021/05/12 03:57:45;;;;;;;7.22;4.15;;;11.10;99.90;;;;;;5064546;28;20025;-71
2021/05/12 04:00:12;;;;;;;7.65;4.03;;;11.10;99.90;;;;;;5064501;28;20060;-72
2021/05/12 04:02:39;;;;;;;8.18;4.22;;;11.10;99.90;;;;;;5064234;28;20025;-70
2021/05/12 04:05:05;;;;;;;18.67;4.25;;;11.10;99.90;;;;;;5064382;28;20025;-71
2021/05/12 04:07:31;;;;;;;9.05;4.32;;;11.10;99.90;;;;;;5064294;28;20068;-69
2021/05/12 04:09:56;;;;;;;9.35;4.82;;;11.10;99.90;;;;;;5063977;28;20037;-71
2021/05/12 04:12:22;;;;;;;7.35;4.00;;;11.10;99.90;;;;;;5064137;28;20025;-71
2021/05/12 04:14:48;;;;;;;8.30;4.43;;;11.10;99.90;;;;;;5062864;28;20095;-71
2021/05/12 04:17:13;;;;;;;10.73;4.93;;;11.20;99.90;;;;;;5064159;28;20021;-71
2021/05/12 04:19:39;;;;;;;8.93;3.88;;;11.20;99.90;;;;;;5064415;28;20036;-72
2021/05/12 04:22:04;;;;;;;5.55;2.75;;;11.20;99.90;;;;;;5064368;28;20021;-70
2021/05/12 04:24:30;;;;;;;9.35;4.50;;;11.20;99.90;;;;;;5063836;28;20029;-72
2021/05/12 04:26:56;;;;;;;7.13;3.78;;;11.30;99.90;;;;;;5064186;28;20024;-72
2021/05/12 04:29:22;;;;;;;8.35;4.22;;;11.30;99.90;;;;;;5062813;28;20033;-71
2021/05/12 04:31:48;;;;;;;9.25;4.05;;;11.30;99.90;;;;;;5063679;28;20029;-71
2021/05/12 04:34:13;;;;;;;5.30;3.55;;;11.30;99.90;;;;;;5064167;28;20052;-72
2021/05/12 04:36:39;;;;;;;13.13;4.18;;;11.30;99.90;;;;;;5064302;28;20049;-70
2021/05/12 04:39:05;;;;;;;5.85;3.15;;;11.40;99.90;;;;;;5064092;28;20025;-71
2021/05/12 04:41:32;;;;;;;6.95;3.72;;;11.40;99.90;;;;;;5064118;28;20036;-71
2021/05/12 04:43:58;;;;;;;9.15;4.38;;;11.40;99.90;;;;;;5062712;28;20423;-71
2021/05/12 04:46:26;;;;;;;10.77;4.00;;;11.40;99.90;;;;;;5063886;28;20033;-71
2021/05/12 04:48:52;;;;;;;6.53;3.00;;;11.40;99.90;;;;;;5063868;28;20021;-73
2021/05/12 04:51:22;;;;;;;9.38;3.65;;;11.40;99.90;;;;;;5063807;28;20069;-71
2021/05/12 04:53:47;;;;;;;7.85;3.65;;;11.40;99.90;;;;;;5062360;28;20059;-71
2021/05/12 04:56:14;;;;;;;8.45;3.42;;;11.40;99.90;;;;;;5064245;28;20024;-73
2021/05/12 04:58:40;;;;;;;5.07;3.17;;;11.40;99.90;;;;;;5067435;28;20021;-73
2021/05/12 05:01:06;;;;;;;7.97;4.15;;;11.50;99.90;;;;;;5067350;28;20051;-70
2021/05/12 05:03:32;;;;;;;11.57;3.90;;;11.50;99.90;;;;;;5067533;28;20039;-73
2021/05/12 05:05:59;;;;;;;7.20;3.33;;;11.50;99.90;;;;;;5067022;28;20017;-71
2021/05/12 05:08:26;;;;;;;7.00;3.38;;;11.60;99.90;;;;;;5067188;28;20021;-73
2021/05/12 05:10:52;;;;;;;9.23;3.42;;;11.70;99.90;;;;;;5066028;28;20481;-73
2021/05/12 05:13:18;;;;;;;10.63;4.13;;;11.60;99.90;;;;;;5067092;28;20043;-72
2021/05/12 05:15:45;;;;;;;8.07;4.13;;;11.70;99.90;;;;;;5066095;28;20051;-73
2021/05/12 05:18:11;;;;;;;9.63;4.03;;;11.70;99.90;;;;;;5067535;28;20468;-72
2021/05/12 05:20:37;;;;;;;5.10;3.58;;;11.70;99.90;;;;;;5067061;28;20025;-73
2021/05/12 05:23:05;;;;;;;10.05;3.40;;;11.70;99.90;;;;;;5067042;28;20056;-72
2021/05/12 05:25:31;;;;;;;5.28;2.78;;;11.80;99.90;;;;;;5066986;28;20025;-71
2021/05/12 05:27:56;;;;;;;10.40;3.42;;;11.80;99.90;;;;;;5066345;28;20104;-70
2021/05/12 05:30:22;;;;;;;7.05;2.97;;;11.80;99.90;;;;;;5074605;28;20424;-73
2021/05/12 05:32:47;;;;;;;6.35;3.50;;;11.80;99.90;;;;;;5080466;28;20054;-73
2021/05/12 05:35:14;;;;;;;7.10;3.88;;;11.80;99.90;;;;;;5086634;28;20024;-73
2021/05/12 05:37:39;;;;;;;12.85;3.17;;;11.80;99.90;;;;;;5087008;28;20024;-74
2021/05/12 05:40:06;;;;;;;8.52;3.45;;;11.90;99.90;;;;;;5086760;28;20107;-72
2021/05/12 05:42:32;;;;;;;5.55;2.78;;;11.90;99.90;;;;;;5087662;28;20035;-73
2021/05/12 05:44:57;;;;;;;6.15;3.38;;;12.00;99.90;;;;;;5085592;28;20024;-77
2021/05/12 05:47:23;;;;;;;6.13;2.92;;;12.00;99.90;;;;;;5086236;28;20089;-72
2021/05/12 05:49:49;;;;;;;7.75;3.78;;;12.00;99.90;;;;;;5086396;28;20056;-73
2021/05/12 05:52:14;;;;;;;2.75;1.90;;;12.10;99.90;;;;;;5085258;28;20029;-75
2021/05/12 05:54:40;;;;;;;5.03;2.70;;;12.10;99.90;;;;;;5086427;28;20488;-74
2021/05/12 05:57:07;;;;;;;8.20;3.28;;;12.20;99.90;;;;;;5086764;28;20039;-73
2021/05/12 05:59:33;;;;;;;8.55;3.00;;;12.20;99.90;;;;;;5086544;28;20078;-73
2021/05/12 06:02:00;;;;;;;5.38;2.85;;;12.10;99.90;;;;;;5086084;28;20056;-72
2021/05/12 06:04:26;;;;;;;4.15;2.30;;;12.20;99.90;;;;;;5086370;28;20059;-74
2021/05/12 06:06:52;;;;;;;5.90;2.60;;;12.30;99.90;;;;;;5086181;28;20028;-72
2021/05/12 06:09:19;;;;;;;5.60;2.92;;;12.30;99.90;;;;;;5086107;28;20032;-74
2021/05/12 06:11:44;;;;;;;11.52;2.25;;;12.40;99.90;;;;;;5082922;28;20037;-76
2021/05/12 06:14:10;;;;;;;6.15;2.80;;;12.40;99.90;;;;;;5065018;28;20412;-75
2021/05/12 06:16:36;;;;;;;4.38;2.33;;;12.50;99.90;;;;;;5082062;28;20032;-74
2021/05/12 06:19:01;;;;;;;4.80;1.90;;;12.40;99.90;;;;;;5085927;28;20028;-74
2021/05/12 06:21:27;;;;;;;7.75;2.17;;;12.40;99.90;;;;;;5085852;28;20082;-73
2021/05/12 06:23:53;;;;;;;10.32;2.35;;;12.50;99.90;;;;;;5086359;28;20035;-72
2021/05/12 06:26:20;;;;;;;3.20;1.75;;;12.40;99.90;;;;;;5086355;28;20028;-70
2021/05/12 06:28:46;;;;;;;4.63;2.33;;;12.40;99.90;;;;;;5084721;28;20028;-70
2021/05/12 06:31:13;;;;;;;9.68;1.95;;;12.40;99.90;;;;;;5085119;28;20048;-69
2021/05/12 06:33:41;;;;;;;3.60;2.05;;;12.40;99.90;;;;;;5085921;28;20052;-73
2021/05/12 06:36:07;;;;;;;7.43;2.10;;;12.50;99.90;;;;;;5084160;28;20502;-72
2021/05/12 06:38:33;;;;;;;5.13;2.20;;;12.50;99.90;;;;;;5085681;28;20035;-70
2021/05/12 06:40:59;;;;;;;5.20;2.95;;;12.60;99.90;;;;;;5085853;28;20480;-72
2021/05/12 06:43:25;;;;;;;3.35;1.92;;;12.60;99.90;;;;;;5085689;28;20032;-72
2021/05/12 06:45:51;;;;;;;6.40;2.45;;;12.70;99.90;;;;;;5085004;28;20028;-73
2021/05/12 06:48:17;;;;;;;4.50;2.10;;;12.60;99.90;;;;;;5085673;28;20024;-71
2021/05/12 06:50:44;;;;;;;5.05;2.47;;;12.50;99.90;;;;;;5082765;28;20052;-72
2021/05/12 06:53:10;;;;;;;3.95;2.33;;;12.50;99.90;;;;;;5084242;28;20033;-72
2021/05/12 06:55:36;;;;;;;5.32;2.60;;;12.40;99.90;;;;;;5085632;28;20064;-72
2021/05/12 06:58:02;;;;;;;5.03;2.92;;;12.40;99.90;;;;;;5084974;28;20087;-74
2021/05/12 07:00:27;;;;;;;10.10;3.28;;;12.30;99.90;;;;;;5085343;28;20029;-72
2021/05/12 07:02:53;;;;;;;7.85;2.80;;;12.30;99.90;;;;;;5084160;28;20037;-74
2021/05/12 07:05:21;;;;;;;8.13;3.58;;;12.40;99.90;;;;;;5084638;28;20024;-72
2021/05/12 07:07:46;;;;;;;4.10;2.67;;;12.40;99.90;;;;;;5083774;28;20096;-72
2021/05/12 07:10:13;;;;;;;12.20;3.92;;;12.40;99.90;;;;;;5083395;28;20111;-70
2021/05/12 07:12:39;;;;;;;14.73;4.35;;;12.40;99.90;;;;;;5078310;28;20040;-72
2021/05/12 07:15:07;;;;;;;9.50;4.80;;;12.40;99.90;;;;;;5065288;28;20037;-71
2021/05/12 07:17:33;;;;;;;8.93;4.57;;;12.50;99.90;;;;;;5065016;28;20079;-73
2021/05/12 07:19:59;;;;;;;11.27;4.78;;;12.50;99.90;;;;;;5064456;28;20052;-70
2021/05/12 07:22:25;;;;;;;10.27;4.03;;;12.60;99.90;;;;;;5064869;28;20029;-75
2021/05/12 07:24:51;;;;;;;11.23;4.35;;;12.70;99.90;;;;;;5063165;28;20138;-73
2021/05/12 07:27:18;;;;;;;8.50;4.05;;;12.80;99.90;;;;;;5063094;28;20024;-71
2021/05/12 07:29:44;;;;;;;7.15;4.07;;;12.90;99.90;;;;;;5064827;28;20048;-74
2021/05/12 07:32:10;;;;;;;9.40;4.00;;;12.90;99.90;;;;;;5065035;28;20025;-75
2021/05/12 07:34:35;;;;;;;10.32;3.95;;;12.80;99.90;;;;;;5064737;28;20110;-71
2021/05/12 07:37:02;;;;;;;8.23;3.92;;;12.80;99.90;;;;;;5064635;28;20029;-71
2021/05/12 07:39:29;;;;;;;8.07;4.00;;;12.80;99.90;;;;;;5063328;28;20048;-71
2021/05/12 07:41:58;;;;;;;10.43;4.03;;;12.90;99.90;;;;;;5064380;28;20491;-70
2021/05/12 07:44:24;;;;;;;8.23;4.47;;;13.00;99.90;;;;;;5064647;28;20030;-69
2021/05/12 07:46:50;;;;;;;8.75;3.47;;;13.10;99.90;;;;;;5080827;28;20021;-70
2021/05/12 07:49:16;;;;;;;7.70;3.80;;;13.10;99.90;;;;;;5084268;28;20091;-71
2021/05/12 07:51:42;;;;;;;6.85;3.40;;;13.20;99.90;;;;;;5084531;28;20031;-74
2021/05/12 07:54:08;;;;;;;8.10;3.75;;;13.20;99.90;;;;;;5084907;28;20036;-71
2021/05/12 07:56:34;;;;;;;9.35;3.78;;;13.10;99.90;;;;;;5084866;28;20025;-72
2021/05/12 07:58:59;;;;;;;5.00;3.28;;;13.20;99.90;;;;;;5083344;28;20480;-69
2021/05/12 08:01:30;;;;;;;8.52;3.55;;;13.10;99.90;;;;;;5084483;28;20430;-72
2021/05/12 08:03:55;;;;;;;6.78;3.55;;;13.10;99.90;;;;;;5084596;28;20421;-71
2021/05/12 08:06:21;;;;;;;5.10;3.33;;;13.10;99.90;;;;;;5084410;28;20021;-72
2021/05/12 08:08:46;;;;;;;5.47;3.15;;;13.10;99.90;;;;;;5084454;28;20076;-72
2021/05/12 08:11:12;;;;;;;6.38;3.05;;;13.10;99.90;;;;;;5083261;28;20067;-70
2021/05/12 08:13:38;;;;;;;6.80;3.30;;;13.10;99.90;;;;;;5084747;28;20404;-72
2021/05/12 08:16:04;;;;;;;6.65;3.70;;;13.20;99.90;;;;;;5084004;28;20028;-69
2021/05/12 08:18:30;;;;;;;6.38;3.15;;;13.20;99.90;;;;;;5082451;28;20424;-72
2021/05/12 08:20:57;;;;;;;6.32;3.38;;;13.10;99.90;;;;;;5083541;28;20040;-70
2021/05/12 08:23:25;;;;;;;7.07;3.42;;;13.20;99.90;;;;;;5083549;28;20039;-67
2021/05/12 08:25:51;;;;;;;9.10;3.25;;;13.20;99.90;;;;;;5083383;28;20052;-71
2021/05/12 08:28:17;;;;;;;5.63;3.75;;;13.20;99.90;;;;;;5084440;28;20032;-73
2021/05/12 08:30:47;;;;;;;7.97;3.88;;;13.20;99.90;;;;;;5084002;28;20058;-71
2021/05/12 08:33:15;;;;;;;6.72;3.35;;;13.20;99.90;;;;;;5086961;28;20028;-71
2021/05/12 08:35:45;;;;;;;5.30;2.95;;;13.20;99.90;;;;;;5088101;28;20024;-71
2021/05/12 08:38:16;;;;;;;5.07;3.40;;;13.20;99.90;;;;;;5087584;28;20025;-72
2021/05/12 08:40:44;;;;;;;9.02;3.42;;;13.20;99.90;;;;;;5088283;28;20024;-70
2021/05/12 08:43:11;;;;;;;6.18;3.03;;;13.20;99.90;;;;;;5081722;28;20125;-71
2021/05/12 08:45:38;;;;;;;3.92;2.45;;;13.20;99.90;;;;;;5087260;28;20028;-70
2021/05/12 08:48:11;;;;;;;5.82;3.35;;;13.20;99.90;;;;;;5076265;28;20032;-71
2021/05/12 08:50:42;;;;;;;4.60;2.67;;;13.30;99.90;;;;;;5073882;28;20051;-70
2021/05/12 08:53:09;;;;;;;7.53;2.67;;;13.30;99.90;;;;;;5077005;28;20044;-71
2021/05/12 08:55:35;;;;;;;4.45;2.63;;;13.30;99.90;;;;;;5076123;28;20033;-74
2021/05/12 08:58:01;;;;;;;3.15;2.17;;;13.20;99.90;;;;;;5075370;28;20079;-70
2021/05/12 09:00:27;;;;;;;6.20;2.72;;;13.30;99.90;;;;;;5067032;28;20025;-70
2021/05/12 09:02:53;;;;;;;5.15;2.97;;;13.30;99.90;;;;;;5069799;28;20045;-69
2021/05/12 09:05:20;;;;;;;5.38;2.63;;;13.30;99.90;;;;;;5072529;28;20036;-71
2021/05/12 09:07:46;;;;;;;3.22;1.95;;;13.40;99.90;;;;;;5071501;28;20025;-73
2021/05/12 09:10:13;;;;;;;4.40;2.03;;;13.50;99.90;;;;;;5069007;28;20037;-70
2021/05/12 09:12:53;;;;;;;10.70;4.00;;;13.50;99.90;;;;;;5071010;28;20088;-71
2021/05/12 09:15:22;;;;;;;4.32;2.80;;;13.60;99.90;;;;;;5077383;28;20037;-68
2021/05/12 09:17:50;;;;;;;7.22;3.22;;;13.60;99.90;;;;;;5066656;28;20021;-69
2021/05/12 09:20:19;;;;;;;4.45;2.53;;;13.70;99.90;;;;;;5066969;28;20031;-71
2021/05/12 09:22:46;;;;;;;3.20;1.98;;;13.90;99.90;;;;;;5065887;28;20040;-70
2021/05/12 09:25:17;;;;;;;4.40;2.58;;;13.90;99.90;;;;;;5066773;28;20079;-71
2021/05/12 09:27:49;;;;;;;4.82;1.73;;;14.00;99.90;;;;;;5079624;28;20029;-70
2021/05/12 09:30:25;;;;;;;8.30;2.47;;;14.00;99.90;;;;;;5086959;28;20062;-70
2021/05/12 09:32:51;;;;;;;3.95;2.08;;;14.00;99.90;;;;;;5086724;28;20033;-69
2021/05/12 09:35:23;;;;;;;3.70;1.75;;;14.00;99.90;;;;;;5085581;28;20063;-72
2021/05/12 09:37:49;;;;;;;3.88;2.30;;;14.00;99.90;;;;;;5086718;28;20031;-70
2021/05/12 09:40:17;;;;;;;4.63;1.85;;;14.00;99.90;;;;;;5087023;28;20024;-71
2021/05/12 09:42:45;;;;;;;2.45;1.48;;;14.00;99.90;;;;;;5086233;28;20031;-70
2021/05/12 09:45:22;;;;;;;6.82;2.25;;;14.00;99.90;;;;;;5085748;28;20051;-71
2021/05/12 09:47:57;;;;;;;5.78;2.35;;;14.00;99.90;;;;;;5086103;28;20032;-72
2021/05/12 09:50:26;;;;;;;3.40;2.08;;;13.90;99.90;;;;;;5084897;28;20048;-70
2021/05/12 09:52:57;;;;;;;2.83;1.70;;;13.90;99.90;;;;;;5072393;28;20029;-73
2021/05/12 09:55:48;;;;;;;7.70;2.33;;;13.90;99.90;;;;;;5084912;28;20035;-72
2021/05/12 09:58:18;;;;;;;3.45;1.60;;;13.90;99.90;;;;;;5085420;28;20555;-73
2021/05/12 10:00:45;;;;;;;4.32;2.00;;;13.90;99.90;;;;;;5086382;28;20076;-72
2021/05/12 10:03:13;;;;;;;3.17;1.80;;;14.00;99.90;;;;;;5086463;28;20043;-73
2021/05/12 10:06:00;;;;;;;5.95;1.85;;;14.30;99.90;;;;;;5086504;28;20047;-72
2021/05/12 10:08:35;;;;;;;2.83;1.60;;;14.80;99.90;;;;;;5085842;28;20028;-73
2021/05/12 10:11:11;;;;;;;2.47;1.52;;;15.20;99.90;;;;;;5086318;28;20043;-73
2021/05/12 10:13:37;;;;;;;2.53;1.33;;;15.50;99.90;;;;;;5085658;28;20024;-71
2021/05/12 10:16:05;;;;;;;7.07;1.35;;;15.70;99.90;;;;;;5085413;28;20031;-70
2021/05/12 10:18:32;;;;;;;3.10;1.52;;;15.70;99.90;;;;;;5085005;28;20036;-77
2021/05/12 10:20:59;;;;;;;3.92;1.27;;;15.60;99.90;;;;;;5083992;28;20038;-72
2021/05/12 10:23:25;;;;;;;1.77;1.27;;;15.50;99.90;;;;;;5085036;28;20021;-72
2021/05/12 10:25:52;;;;;;;2.78;1.65;;;15.40;99.90;;;;;;5085957;28;20350;-70
2021/05/12 10:28:18;;;;;;;2.08;1.23;;;15.30;99.90;;;;;;5084272;28;20037;-73
2021/05/12 10:30:50;;;;;;;2.05;1.33;;;15.40;99.90;;;;;;5086185;28;20040;-72
2021/05/12 10:33:16;;;;;;;3.83;1.55;;;15.60;99.90;;;;;;5085868;28;20031;-75
2021/05/12 10:35:44;;;;;;;3.58;1.58;;;15.90;99.90;;;;;;5085182;28;20028;-69
2021/05/12 10:38:30;;;;;;;2.65;1.65;;;16.00;99.90;;;;;;5084274;28;20397;-70
2021/05/12 10:40:56;;;;;;;2.45;1.13;;;16.10;99.90;;;;;;5085517;28;20032;-71
2021/05/12 10:43:25;;;;;;;1.58;1.08;;;16.40;99.90;;;;;;5084390;28;20028;-73
2021/05/12 10:45:53;;;;;;;3.65;1.15;;;16.60;99.90;;;;;;5084251;28;20098;-73
2021/05/12 10:48:44;;;;;;;2.15;1.38;;;16.70;99.90;;;;;;5084842;28;20031;-72
2021/05/12 10:51:33;;;;;;;2.28;1.25;;;16.80;99.90;;;;;;5084221;28;20052;-71
2021/05/12 10:54:03;;;;;;;1.48;1.10;;;16.80;99.90;;;;;;5084869;28;20043;-72
2021/05/12 10:56:38;;;;;;;2.50;1.30;;;16.70;99.90;;;;;;5084643;28;20068;-74
2021/05/12 10:59:10;;;;;;;1.80;1.30;;;16.80;99.90;;;;;;5084264;28;20028;-70
2021/05/12 11:01:42;;;;;;;2.58;1.23;;;16.80;99.90;;;;;;5082895;28;20039;-73
2021/05/12 11:04:12;;;;;;;1.92;1.38;;;16.60;99.90;;;;;;5085012;28;20105;-70
2021/05/12 11:06:37;;;;;;;6.25;1.17;;;16.50;99.90;;;;;;5085540;28;20040;-72
2021/05/12 11:09:19;;;;;;;2.67;1.30;;;16.30;99.90;;;;;;5084921;28;20024;-70
2021/05/12 11:11:44;;;;;;;1.77;1.23;;;16.20;99.90;;;;;;5084687;28;20036;-69
2021/05/12 11:14:21;;;;;;;7.78;1.60;;;16.20;99.90;;;;;;5083947;28;20033;-72
2021/05/12 11:17:19;;;;;;;4.57;1.80;;;16.20;99.90;;;;;;5084478;28;20029;-73
2021/05/12 11:19:49;;;;;;;4.68;2.17;;;16.20;99.90;;;;;;5072298;28;20064;-71
2021/05/12 11:33:27;;;;;;;1.45;1.10;;;16.80;99.90;;;;;;5084989;28;20036;-70
2021/05/12 11:35:59;;;;;;;2.40;1.73;;;17.20;99.90;;;;;;5083168;28;20025;-72
2021/05/12 11:38:25;;;;;;;4.60;1.58;;;17.50;99.90;;;;;;5084519;28;20060;-70
2021/05/12 11:41:02;;;;;;;4.28;1.60;;;17.70;99.90;;;;;;5084753;28;20082;-70
2021/05/12 11:43:42;;;;;;;1.45;0.80;;;18.20;99.90;;;;;;5083003;28;20024;-73
2021/05/12 11:46:19;;;;;;;5.40;1.25;;;18.50;99.90;;;;;;5085007;28;20042;-71
2021/05/12 11:48:52;;;;;;;2.95;1.35;;;18.80;99.90;;;;;;5084773;28;20024;-75
2021/05/12 11:51:29;;;;;;;1.13;0.98;;;19.10;99.90;;;;;;5083999;28;20080;-68
2021/05/12 11:53:56;;;;;;;0.88;0.80;;;19.30;99.90;;;;;;5084834;28;20024;-73
2021/05/12 11:56:22;;;;;;;5.07;1.27;;;19.30;99.90;;;;;;5084515;28;20103;-72
2021/05/12 11:58:52;;;;;;;1.30;0.95;;;19.10;99.90;;;;;;5082955;28;20049;-69
2021/05/12 12:01:18;;;;;;;1.48;0.90;;;18.90;99.90;;;;;;5084077;28;20026;-70
2021/05/12 12:06:28;;;;;;;1.77;1.23;;;19.00;99.90;;;;;;5086234;28;20055;-72
2021/05/12 12:08:54;;;;;;;2.10;0.90;;;19.10;99.90;;;;;;5088678;28;20025;-69
2021/05/12 12:11:21;;;;;;;1.35;0.82;;;19.10;99.90;;;;;;5088247;28;20458;-69
2021/05/12 12:13:58;;;;;;;0.85;0.73;;;19.10;99.90;;;;;;5088550;28;20024;-72
2021/05/12 12:16:23;;;;;;;0.68;0.57;;;19.20;99.90;;;;;;5088516;28;20051;-71
2021/05/12 12:18:50;;;;;;;1.75;0.90;;;19.50;99.90;;;;;;5086835;28;20028;-70
2021/05/12 12:21:29;;;;;;;1.58;0.90;;;19.60;99.90;;;;;;5088395;28;20032;-72
2021/05/12 12:23:55;;;;;;;1.10;0.85;;;19.90;99.90;;;;;;5088050;28;20454;-73
2021/05/12 12:26:23;;;;;;;0.85;0.77;;;20.10;99.90;;;;;;5086758;28;20033;-71
2021/05/12 12:28:54;;;;;;;0.57;0.57;;;20.10;99.90;;;;;;5086925;28;20037;-72
2021/05/12 12:31:27;;;;;;;0.98;0.88;;;20.30;99.90;;;;;;5087913;28;20086;-72
2021/05/12 12:34:17;;;;;;;1.05;0.80;;;20.20;99.90;;;;;;5088128;28;20059;-74
2021/05/12 12:37:09;;;;;;;1.52;0.85;;;20.20;99.90;;;;;;5086639;28;20029;-74
2021/05/12 12:39:58;;;;;;;1.20;0.63;;;20.10;99.90;;;;;;5087857;28;20460;-68
2021/05/12 12:42:31;;;;;;;0.80;0.68;;;20.00;99.90;;;;;;5088056;28;20119;-68
2021/05/12 12:44:59;;;;;;;1.50;0.73;;;20.30;99.90;;;;;;5087728;28;20035;-72
2021/05/12 12:47:26;;;;;;;3.15;1.00;;;20.40;99.90;;;;;;5087836;28;20025;-69
2021/05/12 12:49:59;;;;;;;1.95;0.75;;;20.60;99.90;;;;;;5086106;28;20063;-70
2021/05/12 12:52:32;;;;;;;3.05;1.13;;;20.70;99.90;;;;;;5086183;28;20032;-70
2021/05/12 12:55:13;;;;;;;1.85;0.73;;;20.50;99.90;;;;;;5087839;28;20027;-68
2021/05/12 12:57:56;;;;;;;2.40;0.57;;;20.30;99.90;;;;;;5087456;28;20080;-70
2021/05/12 13:00:29;;;;;;;1.45;0.82;;;20.40;99.90;;;;;;5087329;28;20032;-71
2021/05/12 13:03:20;;;;;;;0.95;0.60;;;20.50;99.90;;;;;;5087470;28;20032;-70
2021/05/12 13:05:53;;;;;;;0.93;0.50;;;20.30;99.90;;;;;;5085943;28;20482;-69